sensor_id;sensor_type;location;lat;lon;timestamp;P1;durP1;ratioP1;P2;durP2;ratioP2
82938;SDS011;72714;52.744;4.900;2023-09-19T00:01:57;6.95;;;1.70;;
82938;SDS011;72714;52.744;4.900;2023-09-19T00:04:22;6.05;;;1.88;;
82938;SDS011;72714;52.744;4.900;2023-09-19T00:06:54;10.10;;;2.15;;
82938;SDS011;72714;52.744;4.900;2023-09-19T00:09:19;9.70;;;2.00;;
82938;SDS011;72714;52.744;4.900;2023-09-19T00:11:45;10.87;;;2.03;;
82938;SDS011;72714;52.744;4.900;2023-09-19T00:14:13;9.85;;;2.10;;
82938;SDS011;72714;52.744;4.900;2023-09-19T00:16:39;9.98;;;2.25;;
82938;SDS011;72714;52.744;4.900;2023-09-19T00:19:06;9.80;;;2.40;;
82938;SDS011;72714;52.744;4.900;2023-09-19T00:21:32;8.95;;;2.28;;
82938;SDS011;72714;52.744;4.900;2023-09-19T00:23:58;9.73;;;2.25;;
82938;SDS011;72714;52.744;4.900;2023-09-19T00:26:23;12.77;;;2.40;;
82938;SDS011;72714;52.744;4.900;2023-09-19T00:28:51;10.07;;;2.53;;
82938;SDS011;72714;52.744;4.900;2023-09-19T00:31:17;8.13;;;2.10;;
82938;SDS011;72714;52.744;4.900;2023-09-19T00:33:43;10.90;;;2.13;;
82938;SDS011;72714;52.744;4.900;2023-09-19T00:36:08;10.87;;;2.20;;
82938;SDS011;72714;52.744;4.900;2023-09-19T00:38:34;11.45;;;2.53;;
82938;SDS011;72714;52.744;4.900;2023-09-19T00:40:59;10.67;;;2.30;;
82938;SDS011;72714;52.744;4.900;2023-09-19T00:43:25;10.20;;;2.47;;
82938;SDS011;72714;52.744;4.900;2023-09-19T00:45:52;10.65;;;2.28;;
82938;SDS011;72714;52.744;4.900;2023-09-19T00:48:22;10.05;;;2.00;;
82938;SDS011;72714;52.744;4.900;2023-09-19T00:50:49;7.33;;;1.83;;
82938;SDS011;72714;52.744;4.900;2023-09-19T00:53:17;8.70;;;2.00;;
82938;SDS011;72714;52.744;4.900;2023-09-19T00:55:45;8.05;;;1.90;;
82938;SDS011;72714;52.744;4.900;2023-09-19T00:58:12;11.98;;;2.33;;
82938;SDS011;72714;52.744;4.900;2023-09-19T01:00:38;13.77;;;2.60;;
82938;SDS011;72714;52.744;4.900;2023-09-19T01:03:05;9.00;;;2.08;;
82938;SDS011;72714;52.744;4.900;2023-09-19T01:05:33;9.88;;;2.10;;
82938;SDS011;72714;52.744;4.900;2023-09-19T01:07:58;11.85;;;2.60;;
82938;SDS011;72714;52.744;4.900;2023-09-19T01:10:24;8.67;;;2.00;;
82938;SDS011;72714;52.744;4.900;2023-09-19T01:18:47;8.93;;;2.30;;
82938;SDS011;72714;52.744;4.900;2023-09-19T01:21:23;10.57;;;1.95;;
82938;SDS011;72714;52.744;4.900;2023-09-19T01:27:02;10.73;;;2.17;;
82938;SDS011;72714;52.744;4.900;2023-09-19T01:29:46;9.38;;;2.10;;
82938;SDS011;72714;52.744;4.900;2023-09-19T01:32:15;11.75;;;2.45;;
82938;SDS011;72714;52.744;4.900;2023-09-19T01:34:47;10.90;;;2.58;;
82938;SDS011;72714;52.744;4.900;2023-09-19T01:37:17;13.82;;;2.45;;
82938;SDS011;72714;52.744;4.900;2023-09-19T01:39:48;12.40;;;2.60;;
82938;SDS011;72714;52.744;4.900;2023-09-19T01:45:06;13.53;;;2.40;;
82938;SDS011;72714;52.744;4.900;2023-09-19T01:47:48;11.52;;;2.45;;
82938;SDS011;72714;52.744;4.900;2023-09-19T01:50:35;12.00;;;2.30;;
82938;SDS011;72714;52.744;4.900;2023-09-19T01:55:53;10.63;;;2.38;;
82938;SDS011;72714;52.744;4.900;2023-09-19T02:01:08;11.88;;;2.55;;
82938;SDS011;72714;52.744;4.900;2023-09-19T02:03:38;10.90;;;2.40;;
82938;SDS011;72714;52.744;4.900;2023-09-19T02:06:04;8.25;;;2.00;;
82938;SDS011;72714;52.744;4.900;2023-09-19T02:08:30;11.67;;;2.13;;
82938;SDS011;72714;52.744;4.900;2023-09-19T02:10:58;10.50;;;2.10;;
82938;SDS011;72714;52.744;4.900;2023-09-19T02:13:25;11.93;;;2.03;;
82938;SDS011;72714;52.744;4.900;2023-09-19T02:15:50;10.03;;;2.00;;
82938;SDS011;72714;52.744;4.900;2023-09-19T02:18:16;9.70;;;2.03;;
82938;SDS011;72714;52.744;4.900;2023-09-19T02:20:42;8.65;;;2.15;;
82938;SDS011;72714;52.744;4.900;2023-09-19T02:23:08;10.63;;;2.00;;
82938;SDS011;72714;52.744;4.900;2023-09-19T02:25:34;11.27;;;2.30;;
82938;SDS011;72714;52.744;4.900;2023-09-19T02:28:00;7.30;;;1.93;;
82938;SDS011;72714;52.744;4.900;2023-09-19T02:30:28;10.93;;;2.10;;
82938;SDS011;72714;52.744;4.900;2023-09-19T02:32:55;9.85;;;2.10;;
82938;SDS011;72714;52.744;4.900;2023-09-19T02:35:20;12.30;;;1.97;;
82938;SDS011;72714;52.744;4.900;2023-09-19T02:37:46;8.27;;;2.13;;
82938;SDS011;72714;52.744;4.900;2023-09-19T02:40:12;11.40;;;2.07;;
82938;SDS011;72714;52.744;4.900;2023-09-19T02:42:47;11.80;;;2.42;;
82938;SDS011;72714;52.744;4.900;2023-09-19T02:45:21;11.73;;;2.50;;
82938;SDS011;72714;52.744;4.900;2023-09-19T02:47:47;9.98;;;2.28;;
82938;SDS011;72714;52.744;4.900;2023-09-19T02:50:14;10.73;;;2.20;;
82938;SDS011;72714;52.744;4.900;2023-09-19T02:52:43;10.25;;;2.08;;
82938;SDS011;72714;52.744;4.900;2023-09-19T02:55:09;14.10;;;2.63;;
82938;SDS011;72714;52.744;4.900;2023-09-19T02:57:36;10.00;;;2.13;;
82938;SDS011;72714;52.744;4.900;2023-09-19T03:00:06;13.50;;;2.60;;
82938;SDS011;72714;52.744;4.900;2023-09-19T03:02:33;12.70;;;2.85;;
82938;SDS011;72714;52.744;4.900;2023-09-19T03:05:00;11.60;;;2.47;;
82938;SDS011;72714;52.744;4.900;2023-09-19T03:07:26;11.10;;;2.67;;
82938;SDS011;72714;52.744;4.900;2023-09-19T03:09:51;12.87;;;2.80;;
82938;SDS011;72714;52.744;4.900;2023-09-19T03:12:18;12.57;;;2.63;;
82938;SDS011;72714;52.744;4.900;2023-09-19T03:14:44;13.65;;;2.38;;
82938;SDS011;72714;52.744;4.900;2023-09-19T03:17:10;10.70;;;2.45;;
82938;SDS011;72714;52.744;4.900;2023-09-19T03:19:35;12.35;;;2.78;;
82938;SDS011;72714;52.744;4.900;2023-09-19T03:22:04;10.05;;;2.50;;
82938;SDS011;72714;52.744;4.900;2023-09-19T03:24:30;12.10;;;2.73;;
82938;SDS011;72714;52.744;4.900;2023-09-19T03:26:57;14.10;;;2.60;;
82938;SDS011;72714;52.744;4.900;2023-09-19T03:29:23;11.25;;;2.47;;
82938;SDS011;72714;52.744;4.900;2023-09-19T03:31:49;13.77;;;2.63;;
82938;SDS011;72714;52.744;4.900;2023-09-19T03:34:14;13.20;;;2.40;;
82938;SDS011;72714;52.744;4.900;2023-09-19T03:36:40;15.88;;;2.53;;
82938;SDS011;72714;52.744;4.900;2023-09-19T03:39:06;12.73;;;2.50;;
82938;SDS011;72714;52.744;4.900;2023-09-19T03:41:32;14.47;;;2.60;;
82938;SDS011;72714;52.744;4.900;2023-09-19T03:43:58;14.00;;;2.42;;
82938;SDS011;72714;52.744;4.900;2023-09-19T03:46:25;14.85;;;2.72;;
82938;SDS011;72714;52.744;4.900;2023-09-19T03:48:50;12.80;;;2.90;;
82938;SDS011;72714;52.744;4.900;2023-09-19T03:51:16;14.57;;;2.47;;
82938;SDS011;72714;52.744;4.900;2023-09-19T03:53:41;12.68;;;2.45;;
82938;SDS011;72714;52.744;4.900;2023-09-19T03:56:07;11.83;;;2.53;;
82938;SDS011;72714;52.744;4.900;2023-09-19T03:58:33;12.35;;;2.42;;
82938;SDS011;72714;52.744;4.900;2023-09-19T04:01:03;10.02;;;2.15;;
82938;SDS011;72714;52.744;4.900;2023-09-19T04:03:28;11.17;;;2.33;;
82938;SDS011;72714;52.744;4.900;2023-09-19T04:06:00;9.77;;;2.22;;
82938;SDS011;72714;52.744;4.900;2023-09-19T04:08:26;10.57;;;2.20;;
82938;SDS011;72714;52.744;4.900;2023-09-19T04:10:52;9.60;;;2.50;;
82938;SDS011;72714;52.744;4.900;2023-09-19T04:13:18;11.52;;;2.22;;
82938;SDS011;72714;52.744;4.900;2023-09-19T04:15:43;9.43;;;2.20;;
82938;SDS011;72714;52.744;4.900;2023-09-19T04:18:11;9.93;;;2.22;;
82938;SDS011;72714;52.744;4.900;2023-09-19T04:20:37;14.65;;;2.65;;
82938;SDS011;72714;52.744;4.900;2023-09-19T04:23:03;13.73;;;3.57;;
82938;SDS011;72714;52.744;4.900;2023-09-19T04:25:31;13.43;;;2.63;;
82938;SDS011;72714;52.744;4.900;2023-09-19T04:27:57;13.20;;;2.73;;
82938;SDS011;72714;52.744;4.900;2023-09-19T04:30:23;14.32;;;2.80;;
82938;SDS011;72714;52.744;4.900;2023-09-19T04:32:48;10.83;;;2.30;;
82938;SDS011;72714;52.744;4.900;2023-09-19T04:35:15;10.63;;;2.33;;
82938;SDS011;72714;52.744;4.900;2023-09-19T04:37:41;11.05;;;2.20;;
82938;SDS011;72714;52.744;4.900;2023-09-19T04:40:07;9.10;;;2.17;;
82938;SDS011;72714;52.744;4.900;2023-09-19T04:42:43;9.85;;;2.15;;
82938;SDS011;72714;52.744;4.900;2023-09-19T04:45:09;13.18;;;2.20;;
82938;SDS011;72714;52.744;4.900;2023-09-19T04:47:36;11.30;;;2.17;;
82938;SDS011;72714;52.744;4.900;2023-09-19T04:50:04;10.60;;;2.05;;
82938;SDS011;72714;52.744;4.900;2023-09-19T04:52:31;11.88;;;2.30;;
82938;SDS011;72714;52.744;4.900;2023-09-19T04:54:57;10.63;;;2.25;;
82938;SDS011;72714;52.744;4.900;2023-09-19T04:57:22;9.43;;;2.05;;
82938;SDS011;72714;52.744;4.900;2023-09-19T04:59:49;8.43;;;2.42;;
82938;SDS011;72714;52.744;4.900;2023-09-19T05:02:15;10.98;;;2.30;;
82938;SDS011;72714;52.744;4.900;2023-09-19T05:04:40;8.67;;;2.40;;
82938;SDS011;72714;52.744;4.900;2023-09-19T05:07:06;11.67;;;2.97;;
82938;SDS011;72714;52.744;4.900;2023-09-19T05:09:31;10.17;;;2.10;;
82938;SDS011;72714;52.744;4.900;2023-09-19T05:12:00;10.93;;;2.20;;
82938;SDS011;72714;52.744;4.900;2023-09-19T05:14:25;9.63;;;2.20;;
82938;SDS011;72714;52.744;4.900;2023-09-19T05:16:51;13.87;;;2.40;;
82938;SDS011;72714;52.744;4.900;2023-09-19T05:19:16;9.07;;;2.20;;
82938;SDS011;72714;52.744;4.900;2023-09-19T05:21:42;8.80;;;2.37;;
82938;SDS011;72714;52.744;4.900;2023-09-19T05:24:08;8.40;;;2.30;;
82938;SDS011;72714;52.744;4.900;2023-09-19T05:26:33;10.00;;;2.40;;
82938;SDS011;72714;52.744;4.900;2023-09-19T05:28:59;12.25;;;2.35;;
82938;SDS011;72714;52.744;4.900;2023-09-19T05:31:26;10.95;;;2.13;;
82938;SDS011;72714;52.744;4.900;2023-09-19T05:33:52;8.15;;;2.40;;
82938;SDS011;72714;52.744;4.900;2023-09-19T05:36:22;10.43;;;2.50;;
82938;SDS011;72714;52.744;4.900;2023-09-19T05:38:48;10.52;;;2.40;;
82938;SDS011;72714;52.744;4.900;2023-09-19T05:41:16;12.60;;;2.53;;
82938;SDS011;72714;52.744;4.900;2023-09-19T05:43:43;9.90;;;2.30;;
82938;SDS011;72714;52.744;4.900;2023-09-19T05:46:08;14.37;;;2.80;;
82938;SDS011;72714;52.744;4.900;2023-09-19T05:48:36;10.82;;;2.13;;
82938;SDS011;72714;52.744;4.900;2023-09-19T05:51:03;9.45;;;2.45;;
82938;SDS011;72714;52.744;4.900;2023-09-19T05:53:29;11.45;;;2.28;;
82938;SDS011;72714;52.744;4.900;2023-09-19T05:55:56;13.77;;;2.67;;
82938;SDS011;72714;52.744;4.900;2023-09-19T05:58:21;10.77;;;2.53;;
82938;SDS011;72714;52.744;4.900;2023-09-19T06:00:47;11.43;;;2.17;;
82938;SDS011;72714;52.744;4.900;2023-09-19T06:03:14;9.65;;;2.00;;
82938;SDS011;72714;52.744;4.900;2023-09-19T06:05:40;10.87;;;2.40;;
82938;SDS011;72714;52.744;4.900;2023-09-19T06:08:06;13.40;;;2.60;;
82938;SDS011;72714;52.744;4.900;2023-09-19T06:10:35;11.87;;;2.40;;
82938;SDS011;72714;52.744;4.900;2023-09-19T06:13:04;11.32;;;2.65;;
82938;SDS011;72714;52.744;4.900;2023-09-19T06:15:30;10.23;;;2.33;;
82938;SDS011;72714;52.744;4.900;2023-09-19T06:17:58;12.73;;;2.77;;
82938;SDS011;72714;52.744;4.900;2023-09-19T06:20:30;10.88;;;2.28;;
82938;SDS011;72714;52.744;4.900;2023-09-19T06:22:56;9.98;;;2.20;;
82938;SDS011;72714;52.744;4.900;2023-09-19T06:25:21;13.93;;;2.85;;
82938;SDS011;72714;52.744;4.900;2023-09-19T06:27:53;11.23;;;2.60;;
82938;SDS011;72714;52.744;4.900;2023-09-19T06:30:20;11.85;;;2.65;;
82938;SDS011;72714;52.744;4.900;2023-09-19T06:32:46;11.55;;;2.50;;
82938;SDS011;72714;52.744;4.900;2023-09-19T06:35:12;12.15;;;2.70;;
82938;SDS011;72714;52.744;4.900;2023-09-19T06:37:39;11.27;;;2.72;;
82938;SDS011;72714;52.744;4.900;2023-09-19T06:40:12;15.10;;;3.20;;
82938;SDS011;72714;52.744;4.900;2023-09-19T06:42:40;14.70;;;2.97;;
82938;SDS011;72714;52.744;4.900;2023-09-19T06:45:15;13.47;;;3.00;;
82938;SDS011;72714;52.744;4.900;2023-09-19T06:47:44;12.65;;;3.08;;
82938;SDS011;72714;52.744;4.900;2023-09-19T06:50:11;12.73;;;2.75;;
82938;SDS011;72714;52.744;4.900;2023-09-19T06:52:40;12.65;;;2.70;;
82938;SDS011;72714;52.744;4.900;2023-09-19T06:55:06;9.32;;;2.83;;
82938;SDS011;72714;52.744;4.900;2023-09-19T06:57:32;10.93;;;2.63;;
82938;SDS011;72714;52.744;4.900;2023-09-19T06:59:58;14.93;;;2.72;;
82938;SDS011;72714;52.744;4.900;2023-09-19T07:02:23;11.17;;;2.60;;
82938;SDS011;72714;52.744;4.900;2023-09-19T07:04:49;13.03;;;2.80;;
82938;SDS011;72714;52.744;4.900;2023-09-19T07:07:15;11.27;;;2.60;;
82938;SDS011;72714;52.744;4.900;2023-09-19T07:09:41;11.50;;;2.53;;
82938;SDS011;72714;52.744;4.900;2023-09-19T07:12:07;11.80;;;2.60;;
82938;SDS011;72714;52.744;4.900;2023-09-19T07:14:33;14.10;;;2.70;;
82938;SDS011;72714;52.744;4.900;2023-09-19T07:16:59;14.67;;;2.77;;
82938;SDS011;72714;52.744;4.900;2023-09-19T07:19:28;13.02;;;2.95;;
82938;SDS011;72714;52.744;4.900;2023-09-19T07:21:55;9.88;;;2.65;;
82938;SDS011;72714;52.744;4.900;2023-09-19T07:24:20;10.82;;;2.20;;
82938;SDS011;72714;52.744;4.900;2023-09-19T07:26:49;14.52;;;2.80;;
82938;SDS011;72714;52.744;4.900;2023-09-19T07:29:15;12.02;;;2.63;;
82938;SDS011;72714;52.744;4.900;2023-09-19T07:31:40;16.90;;;3.00;;
82938;SDS011;72714;52.744;4.900;2023-09-19T07:34:07;12.63;;;2.40;;
82938;SDS011;72714;52.744;4.900;2023-09-19T07:36:34;10.80;;;2.47;;
82938;SDS011;72714;52.744;4.900;2023-09-19T07:38:59;10.27;;;2.58;;
82938;SDS011;72714;52.744;4.900;2023-09-19T07:41:25;17.10;;;3.28;;
82938;SDS011;72714;52.744;4.900;2023-09-19T07:43:51;12.97;;;2.50;;
82938;SDS011;72714;52.744;4.900;2023-09-19T07:46:17;13.15;;;2.67;;
82938;SDS011;72714;52.744;4.900;2023-09-19T07:48:42;16.00;;;2.90;;
82938;SDS011;72714;52.744;4.900;2023-09-19T07:51:12;13.23;;;2.80;;
82938;SDS011;72714;52.744;4.900;2023-09-19T07:53:41;12.27;;;2.75;;
82938;SDS011;72714;52.744;4.900;2023-09-19T07:56:08;12.90;;;3.20;;
82938;SDS011;72714;52.744;4.900;2023-09-19T07:58:38;13.57;;;3.03;;
82938;SDS011;72714;52.744;4.900;2023-09-19T08:01:06;12.88;;;2.80;;
82938;SDS011;72714;52.744;4.900;2023-09-19T08:03:33;14.07;;;3.20;;
82938;SDS011;72714;52.744;4.900;2023-09-19T08:05:59;12.90;;;3.08;;
82938;SDS011;72714;52.744;4.900;2023-09-19T08:08:26;13.00;;;2.85;;
82938;SDS011;72714;52.744;4.900;2023-09-19T08:10:52;14.05;;;3.25;;
82938;SDS011;72714;52.744;4.900;2023-09-19T08:13:25;14.32;;;2.90;;
82938;SDS011;72714;52.744;4.900;2023-09-19T08:15:51;15.20;;;3.55;;
82938;SDS011;72714;52.744;4.900;2023-09-19T08:18:20;13.70;;;2.88;;
82938;SDS011;72714;52.744;4.900;2023-09-19T08:20:51;13.38;;;3.25;;
82938;SDS011;72714;52.744;4.900;2023-09-19T08:23:17;16.70;;;3.33;;
82938;SDS011;72714;52.744;4.900;2023-09-19T08:25:45;15.27;;;3.60;;
82938;SDS011;72714;52.744;4.900;2023-09-19T08:28:11;14.20;;;2.90;;
82938;SDS011;72714;52.744;4.900;2023-09-19T08:30:39;17.80;;;3.50;;
82938;SDS011;72714;52.744;4.900;2023-09-19T08:33:06;15.75;;;3.42;;
82938;SDS011;72714;52.744;4.900;2023-09-19T08:35:32;13.23;;;3.40;;
82938;SDS011;72714;52.744;4.900;2023-09-19T08:37:58;14.32;;;3.20;;
82938;SDS011;72714;52.744;4.900;2023-09-19T08:40:29;12.43;;;3.13;;
82938;SDS011;72714;52.744;4.900;2023-09-19T08:42:58;14.50;;;3.45;;
82938;SDS011;72714;52.744;4.900;2023-09-19T08:45:24;13.40;;;3.25;;
82938;SDS011;72714;52.744;4.900;2023-09-19T08:50:31;15.48;;;3.30;;
82938;SDS011;72714;52.744;4.900;2023-09-19T08:53:02;11.90;;;3.13;;
82938;SDS011;72714;52.744;4.900;2023-09-19T08:55:35;15.25;;;3.13;;
82938;SDS011;72714;52.744;4.900;2023-09-19T08:58:02;12.77;;;3.30;;
82938;SDS011;72714;52.744;4.900;2023-09-19T09:00:29;15.13;;;3.35;;
82938;SDS011;72714;52.744;4.900;2023-09-19T09:02:56;16.20;;;3.17;;
82938;SDS011;72714;52.744;4.900;2023-09-19T09:05:22;15.27;;;3.33;;
82938;SDS011;72714;52.744;4.900;2023-09-19T09:07:49;18.42;;;3.85;;
82938;SDS011;72714;52.744;4.900;2023-09-19T09:10:18;14.90;;;3.40;;
82938;SDS011;72714;52.744;4.900;2023-09-19T09:12:47;14.40;;;3.08;;
82938;SDS011;72714;52.744;4.900;2023-09-19T09:15:14;16.67;;;3.05;;
82938;SDS011;72714;52.744;4.900;2023-09-19T09:17:41;14.63;;;3.15;;
82938;SDS011;72714;52.744;4.900;2023-09-19T09:20:08;15.38;;;3.35;;
82938;SDS011;72714;52.744;4.900;2023-09-19T09:22:35;15.05;;;2.80;;
82938;SDS011;72714;52.744;4.900;2023-09-19T09:25:01;15.15;;;3.10;;
82938;SDS011;72714;52.744;4.900;2023-09-19T09:27:29;16.50;;;3.20;;
82938;SDS011;72714;52.744;4.900;2023-09-19T09:29:55;16.45;;;3.15;;
82938;SDS011;72714;52.744;4.900;2023-09-19T09:34:52;13.77;;;2.73;;
82938;SDS011;72714;52.744;4.900;2023-09-19T09:37:18;14.13;;;3.17;;
82938;SDS011;72714;52.744;4.900;2023-09-19T09:39:52;15.05;;;3.30;;
82938;SDS011;72714;52.744;4.900;2023-09-19T09:42:38;14.73;;;2.90;;
82938;SDS011;72714;52.744;4.900;2023-09-19T09:47:59;15.07;;;3.08;;
82938;SDS011;72714;52.744;4.900;2023-09-19T09:50:32;16.02;;;3.35;;
82938;SDS011;72714;52.744;4.900;2023-09-19T09:53:31;17.55;;;3.67;;
82938;SDS011;72714;52.744;4.900;2023-09-19T09:56:00;14.73;;;3.20;;
82938;SDS011;72714;52.744;4.900;2023-09-19T09:58:31;16.65;;;3.22;;
82938;SDS011;72714;52.744;4.900;2023-09-19T10:00:58;14.00;;;3.58;;
82938;SDS011;72714;52.744;4.900;2023-09-19T10:03:35;12.88;;;3.00;;
82938;SDS011;72714;52.744;4.900;2023-09-19T10:06:10;16.00;;;4.00;;
82938;SDS011;72714;52.744;4.900;2023-09-19T10:09:00;13.48;;;3.25;;
82938;SDS011;72714;52.744;4.900;2023-09-19T10:12:03;15.80;;;3.53;;
82938;SDS011;72714;52.744;4.900;2023-09-19T10:14:31;14.65;;;3.50;;
82938;SDS011;72714;52.744;4.900;2023-09-19T10:16:59;13.90;;;3.90;;
82938;SDS011;72714;52.744;4.900;2023-09-19T10:19:30;14.77;;;3.70;;
82938;SDS011;72714;52.744;4.900;2023-09-19T10:21:59;12.05;;;3.28;;
82938;SDS011;72714;52.744;4.900;2023-09-19T10:24:27;14.60;;;3.70;;
82938;SDS011;72714;52.744;4.900;2023-09-19T10:26:53;12.35;;;3.53;;
82938;SDS011;72714;52.744;4.900;2023-09-19T10:29:20;17.13;;;4.00;;
82938;SDS011;72714;52.744;4.900;2023-09-19T10:31:49;16.60;;;3.90;;
82938;SDS011;72714;52.744;4.900;2023-09-19T10:34:18;15.98;;;3.78;;
82938;SDS011;72714;52.744;4.900;2023-09-19T10:36:45;17.83;;;3.60;;
82938;SDS011;72714;52.744;4.900;2023-09-19T10:39:16;14.87;;;3.93;;
82938;SDS011;72714;52.744;4.900;2023-09-19T10:41:51;13.73;;;3.50;;
82938;SDS011;72714;52.744;4.900;2023-09-19T10:44:25;17.35;;;3.70;;
82938;SDS011;72714;52.744;4.900;2023-09-19T10:46:51;19.88;;;4.00;;
82938;SDS011;72714;52.744;4.900;2023-09-19T10:49:20;19.40;;;4.03;;
82938;SDS011;72714;52.744;4.900;2023-09-19T10:51:46;19.90;;;3.63;;
82938;SDS011;72714;52.744;4.900;2023-09-19T10:54:15;18.20;;;3.95;;
82938;SDS011;72714;52.744;4.900;2023-09-19T10:56:51;18.05;;;3.90;;
82938;SDS011;72714;52.744;4.900;2023-09-19T10:59:18;21.88;;;4.60;;
82938;SDS011;72714;52.744;4.900;2023-09-19T11:01:49;17.90;;;3.83;;
82938;SDS011;72714;52.744;4.900;2023-09-19T11:04:34;20.00;;;3.67;;
82938;SDS011;72714;52.744;4.900;2023-09-19T11:07:01;18.02;;;3.80;;
82938;SDS011;72714;52.744;4.900;2023-09-19T11:14:54;15.23;;;3.50;;
82938;SDS011;72714;52.744;4.900;2023-09-19T11:30:35;17.07;;;3.73;;
82938;SDS011;72714;52.744;4.900;2023-09-19T11:33:20;15.52;;;3.97;;
82938;SDS011;72714;52.744;4.900;2023-09-19T11:43:51;20.08;;;3.75;;
82938;SDS011;72714;52.744;4.900;2023-09-19T11:46:20;15.68;;;3.50;;
82938;SDS011;72714;52.744;4.900;2023-09-19T11:48:49;15.80;;;3.28;;
82938;SDS011;72714;52.744;4.900;2023-09-19T11:51:16;18.98;;;3.53;;
82938;SDS011;72714;52.744;4.900;2023-09-19T11:53:52;15.85;;;3.50;;
82938;SDS011;72714;52.744;4.900;2023-09-19T11:56:27;21.83;;;4.67;;
82938;SDS011;72714;52.744;4.900;2023-09-19T11:58:54;18.70;;;3.70;;
82938;SDS011;72714;52.744;4.900;2023-09-19T12:01:29;20.02;;;3.70;;
82938;SDS011;72714;52.744;4.900;2023-09-19T12:04:00;17.90;;;4.28;;
82938;SDS011;72714;52.744;4.900;2023-09-19T12:06:29;16.52;;;4.00;;
82938;SDS011;72714;52.744;4.900;2023-09-19T12:08:57;17.83;;;4.30;;
82938;SDS011;72714;52.744;4.900;2023-09-19T12:11:27;18.20;;;4.95;;
82938;SDS011;72714;52.744;4.900;2023-09-19T12:13:55;21.37;;;4.40;;
82938;SDS011;72714;52.744;4.900;2023-09-19T12:16:25;19.30;;;4.88;;
82938;SDS011;72714;52.744;4.900;2023-09-19T12:18:51;23.60;;;4.67;;
82938;SDS011;72714;52.744;4.900;2023-09-19T12:21:26;19.15;;;4.68;;
82938;SDS011;72714;52.744;4.900;2023-09-19T12:26:39;16.60;;;4.30;;
82938;SDS011;72714;52.744;4.900;2023-09-19T12:29:12;17.92;;;4.15;;
82938;SDS011;72714;52.744;4.900;2023-09-19T12:31:54;21.05;;;4.22;;
82938;SDS011;72714;52.744;4.900;2023-09-19T12:34:31;21.58;;;4.57;;
82938;SDS011;72714;52.744;4.900;2023-09-19T12:37:04;21.15;;;4.38;;
82938;SDS011;72714;52.744;4.900;2023-09-19T12:39:45;25.35;;;4.55;;
82938;SDS011;72714;52.744;4.900;2023-09-19T12:42:25;25.55;;;4.68;;
82938;SDS011;72714;52.744;4.900;2023-09-19T12:44:57;21.45;;;4.50;;
82938;SDS011;72714;52.744;4.900;2023-09-19T12:47:23;24.70;;;4.77;;
82938;SDS011;72714;52.744;4.900;2023-09-19T12:52:48;26.10;;;4.90;;
82938;SDS011;72714;52.744;4.900;2023-09-19T12:55:21;19.02;;;4.55;;
82938;SDS011;72714;52.744;4.900;2023-09-19T12:58:02;21.15;;;4.45;;
82938;SDS011;72714;52.744;4.900;2023-09-19T13:03:36;20.85;;;4.50;;
82938;SDS011;72714;52.744;4.900;2023-09-19T13:05:58;24.98;;;5.20;;
82938;SDS011;72714;52.744;4.900;2023-09-19T13:09:07;20.98;;;4.57;;
82938;SDS011;72714;52.744;4.900;2023-09-19T13:11:35;25.67;;;5.13;;
82938;SDS011;72714;52.744;4.900;2023-09-19T13:14:14;28.58;;;5.47;;
82938;SDS011;72714;52.744;4.900;2023-09-19T13:16:58;27.98;;;5.90;;
82938;SDS011;72714;52.744;4.900;2023-09-19T13:19:41;25.87;;;5.00;;
82938;SDS011;72714;52.744;4.900;2023-09-19T13:25:09;24.63;;;5.78;;
82938;SDS011;72714;52.744;4.900;2023-09-19T13:27:45;24.02;;;5.70;;
82938;SDS011;72714;52.744;4.900;2023-09-19T13:30:12;26.63;;;5.03;;
82938;SDS011;72714;52.744;4.900;2023-09-19T13:32:38;25.92;;;5.00;;
82938;SDS011;72714;52.744;4.900;2023-09-19T13:35:05;25.20;;;5.28;;
82938;SDS011;72714;52.744;4.900;2023-09-19T13:37:34;22.90;;;5.05;;
82938;SDS011;72714;52.744;4.900;2023-09-19T13:40:04;26.35;;;5.65;;
82938;SDS011;72714;52.744;4.900;2023-09-19T13:42:30;23.70;;;5.50;;
82938;SDS011;72714;52.744;4.900;2023-09-19T13:44:57;27.75;;;5.13;;
82938;SDS011;72714;52.744;4.900;2023-09-19T13:47:22;23.10;;;5.33;;
82938;SDS011;72714;52.744;4.900;2023-09-19T13:49:50;20.25;;;4.72;;
82938;SDS011;72714;52.744;4.900;2023-09-19T13:52:19;26.20;;;6.10;;
82938;SDS011;72714;52.744;4.900;2023-09-19T13:54:45;25.90;;;5.68;;
82938;SDS011;72714;52.744;4.900;2023-09-19T13:57:11;29.23;;;6.00;;
82938;SDS011;72714;52.744;4.900;2023-09-19T13:59:36;25.17;;;5.37;;
82938;SDS011;72714;52.744;4.900;2023-09-19T14:02:02;29.30;;;5.50;;
82938;SDS011;72714;52.744;4.900;2023-09-19T14:04:31;25.48;;;5.63;;
82938;SDS011;72714;52.744;4.900;2023-09-19T14:06:57;24.98;;;5.18;;
82938;SDS011;72714;52.744;4.900;2023-09-19T14:09:28;24.65;;;4.82;;
82938;SDS011;72714;52.744;4.900;2023-09-19T14:11:54;30.80;;;5.83;;
82938;SDS011;72714;52.744;4.900;2023-09-19T14:14:20;29.87;;;5.90;;
82938;SDS011;72714;52.744;4.900;2023-09-19T14:16:46;29.05;;;5.70;;
82938;SDS011;72714;52.744;4.900;2023-09-19T14:19:12;32.97;;;5.75;;
82938;SDS011;72714;52.744;4.900;2023-09-19T14:21:41;27.67;;;5.85;;
82938;SDS011;72714;52.744;4.900;2023-09-19T14:24:08;25.00;;;5.45;;
82938;SDS011;72714;52.744;4.900;2023-09-19T14:26:38;31.40;;;7.07;;
82938;SDS011;72714;52.744;4.900;2023-09-19T14:29:08;29.17;;;6.17;;
82938;SDS011;72714;52.744;4.900;2023-09-19T14:31:37;35.40;;;6.77;;
82938;SDS011;72714;52.744;4.900;2023-09-19T14:34:03;34.28;;;7.10;;
82938;SDS011;72714;52.744;4.900;2023-09-19T14:36:30;32.60;;;6.33;;
82938;SDS011;72714;52.744;4.900;2023-09-19T14:38:56;24.60;;;5.63;;
82938;SDS011;72714;52.744;4.900;2023-09-19T14:41:24;32.83;;;6.72;;
82938;SDS011;72714;52.744;4.900;2023-09-19T14:43:54;29.93;;;5.87;;
82938;SDS011;72714;52.744;4.900;2023-09-19T14:46:22;36.20;;;6.60;;
82938;SDS011;72714;52.744;4.900;2023-09-19T14:48:51;30.35;;;6.25;;
82938;SDS011;72714;52.744;4.900;2023-09-19T14:51:17;30.25;;;6.05;;
82938;SDS011;72714;52.744;4.900;2023-09-19T14:53:44;24.88;;;5.50;;
82938;SDS011;72714;52.744;4.900;2023-09-19T14:56:11;31.63;;;6.40;;
82938;SDS011;72714;52.744;4.900;2023-09-19T14:58:37;29.30;;;5.57;;
82938;SDS011;72714;52.744;4.900;2023-09-19T15:01:07;31.25;;;6.30;;
82938;SDS011;72714;52.744;4.900;2023-09-19T15:03:37;31.38;;;6.60;;
82938;SDS011;72714;52.744;4.900;2023-09-19T15:06:07;30.00;;;5.80;;
82938;SDS011;72714;52.744;4.900;2023-09-19T15:08:45;34.00;;;6.75;;
82938;SDS011;72714;52.744;4.900;2023-09-19T15:11:21;32.03;;;6.57;;
82938;SDS011;72714;52.744;4.900;2023-09-19T15:13:48;28.92;;;6.03;;
82938;SDS011;72714;52.744;4.900;2023-09-19T15:16:16;36.67;;;7.38;;
82938;SDS011;72714;52.744;4.900;2023-09-19T15:18:42;27.93;;;6.23;;
82938;SDS011;72714;52.744;4.900;2023-09-19T15:21:10;40.45;;;7.47;;
82938;SDS011;72714;52.744;4.900;2023-09-19T15:23:37;34.25;;;6.20;;
82938;SDS011;72714;52.744;4.900;2023-09-19T15:26:03;31.02;;;6.57;;
82938;SDS011;72714;52.744;4.900;2023-09-19T15:28:30;33.60;;;6.72;;
82938;SDS011;72714;52.744;4.900;2023-09-19T15:31:03;35.40;;;7.43;;
82938;SDS011;72714;52.744;4.900;2023-09-19T15:33:30;35.00;;;6.90;;
82938;SDS011;72714;52.744;4.900;2023-09-19T15:38:32;32.03;;;7.45;;
82938;SDS011;72714;52.744;4.900;2023-09-19T15:41:23;31.30;;;6.95;;
82938;SDS011;72714;52.744;4.900;2023-09-19T15:43:49;34.88;;;7.32;;
82938;SDS011;72714;52.744;4.900;2023-09-19T15:46:15;30.48;;;6.47;;
82938;SDS011;72714;52.744;4.900;2023-09-19T15:48:40;41.17;;;8.52;;
82938;SDS011;72714;52.744;4.900;2023-09-19T15:51:09;32.45;;;7.10;;